createdAt,value
2019-02-07T00:01:13.412Z,29.90
2019-02-07T00:04:02.229Z,30.40
2019-02-07T00:06:35.141Z,30.80
2019-02-07T00:09:16.504Z,30.43
2019-02-07T00:11:51.402Z,32.27
2019-02-07T00:14:24.959Z,30.20
2019-02-07T00:17:03.925Z,30.07
2019-02-07T00:19:34.421Z,32.53
2019-02-07T00:22:08.676Z,31.07
2019-02-07T00:24:42.807Z,31.87
2019-02-07T00:27:17.810Z,32.03
2019-02-07T00:29:49.934Z,31.77
2019-02-07T00:32:21.989Z,30.30
2019-02-07T00:34:56.216Z,34.40
2019-02-07T00:37:28.285Z,31.93
2019-02-07T00:40:01.647Z,31.80
2019-02-07T00:42:34.109Z,31.50
2019-02-07T00:45:05.654Z,30.87
2019-02-07T00:47:38.164Z,33.57
2019-02-07T00:50:12.312Z,31.03
2019-02-07T00:52:44.595Z,31.23
2019-02-07T00:55:15.358Z,29.20
2019-02-07T00:57:49.016Z,32.00
2019-02-07T01:00:23.961Z,33.40
2019-02-07T01:03:03.717Z,33.80
2019-02-07T01:05:34.202Z,31.40
2019-02-07T01:08:08.004Z,33.13
2019-02-07T01:10:39.122Z,31.00
2019-02-07T01:13:09.659Z,31.13
2019-02-07T01:15:40.569Z,31.67
2019-02-07T01:18:11.830Z,32.03
2019-02-07T01:20:42.777Z,31.43
2019-02-07T01:23:15.099Z,34.27
2019-02-07T01:25:48.637Z,33.20
2019-02-07T01:28:22.131Z,32.10
2019-02-07T01:31:13.556Z,32.70
2019-02-07T01:33:46.647Z,33.80
2019-02-07T01:36:20.564Z,31.40
2019-02-07T01:38:54.675Z,32.37
2019-02-07T01:41:43.816Z,32.30
2019-02-07T01:44:21.644Z,31.60
2019-02-07T01:46:52.478Z,33.03
2019-02-07T01:49:23.720Z,33.70
2019-02-07T01:51:57.320Z,32.57
2019-02-07T01:54:28.633Z,33.90
2019-02-07T01:57:00.545Z,33.70
2019-02-07T01:59:36.156Z,33.37
2019-02-07T02:02:15.091Z,30.90
2019-02-07T02:04:46.533Z,34.27
2019-02-07T02:07:18.807Z,32.60
2019-02-07T02:09:50.326Z,30.70
2019-02-07T02:12:24.720Z,32.10
2019-02-07T02:15:03.466Z,33.03
2019-02-07T02:17:33.944Z,31.97
2019-02-07T02:20:05.466Z,30.40
2019-02-07T02:22:36.368Z,35.57
2019-02-07T02:25:08.817Z,32.10
2019-02-07T02:27:42.262Z,31.93
2019-02-07T02:30:18.472Z,34.33
2019-02-07T02:33:05.803Z,32.40
2019-02-07T02:35:37.784Z,31.93
2019-02-07T02:38:09.639Z,32.63
2019-02-07T02:40:41.766Z,31.80
2019-02-07T02:43:13.815Z,33.43
2019-02-07T02:45:44.783Z,32.50
2019-02-07T02:48:17.880Z,33.63
2019-02-07T02:50:50.045Z,33.30
2019-02-07T02:53:23.928Z,33.10
2019-02-07T02:55:57.558Z,34.23
2019-02-07T02:58:28.586Z,33.53
2019-02-07T03:01:23.401Z,34.33
2019-02-07T03:04:07.448Z,33.20
2019-02-07T03:07:15.606Z,33.70
2019-02-07T03:10:15.589Z,35.40
2019-02-07T03:13:00.325Z,35.13
2019-02-07T03:16:15.294Z,34.30
2019-02-07T03:19:06.222Z,34.87
2019-02-07T03:22:02.495Z,33.03
2019-02-07T03:24:57.897Z,35.20
2019-02-07T03:27:56.516Z,35.90
2019-02-07T03:30:47.374Z,33.67
2019-02-07T03:33:29.404Z,32.50
2019-02-07T03:36:26.390Z,34.37
2019-02-07T03:39:42.824Z,34.60
2019-02-07T03:43:04.389Z,35.10
2019-02-07T03:46:07.965Z,34.30
2019-02-07T03:48:47.119Z,36.83
2019-02-07T03:51:38.010Z,33.20
2019-02-07T03:55:02.243Z,35.20
2019-02-07T03:57:52.632Z,37.70
2019-02-07T04:00:56.238Z,35.40
2019-02-07T04:03:59.862Z,36.30
2019-02-07T04:07:07.776Z,36.93
2019-02-07T04:09:58.984Z,36.03
2019-02-07T04:12:52.666Z,37.10
2019-02-07T04:15:48.006Z,36.83
2019-02-07T04:18:52.325Z,37.47
2019-02-07T04:21:42.180Z,35.63
2019-02-07T04:24:49.324Z,33.27
2019-02-07T04:27:37.333Z,36.07
2019-02-07T04:30:17.288Z,36.03
2019-02-07T04:33:19.816Z,34.53
2019-02-07T04:36:19.181Z,35.50
2019-02-07T04:39:38.019Z,34.50
2019-02-07T04:42:46.609Z,37.03
2019-02-07T04:45:36.951Z,34.47
2019-02-07T04:48:29.093Z,34.67
2019-02-07T04:51:25.096Z,32.97
2019-02-07T04:54:20.287Z,34.30
2019-02-07T04:57:40.862Z,32.87
2019-02-07T05:00:27.314Z,32.07
2019-02-07T05:03:22.587Z,34.20
2019-02-07T05:06:17.856Z,31.13
2019-02-07T05:09:09.249Z,30.77
2019-02-07T05:11:56.777Z,33.20
2019-02-07T05:14:44.327Z,33.90
2019-02-07T05:17:33.165Z,34.03
2019-02-07T05:20:46.672Z,32.27
2019-02-07T05:23:35.991Z,34.20
2019-02-07T05:26:28.200Z,32.30
2019-02-07T05:29:16.767Z,32.97
2019-02-07T05:32:30.943Z,33.90
2019-02-07T05:35:31.772Z,32.07
2019-02-07T05:38:21.867Z,33.87
2019-02-07T05:41:17.304Z,34.40
2019-02-07T05:44:10.179Z,32.40
2019-02-07T05:47:33.339Z,33.97
2019-02-07T05:50:28.050Z,33.70
2019-02-07T05:53:08.689Z,33.07
2019-02-07T05:56:13.130Z,34.13
2019-02-07T05:59:06.524Z,31.33
2019-02-07T06:02:05.819Z,34.30
2019-02-07T06:04:56.333Z,31.83
2019-02-07T06:07:39.228Z,33.10
2019-02-07T06:10:31.531Z,34.17
2019-02-07T06:13:38.509Z,32.03
2019-02-07T06:16:42.167Z,30.90
2019-02-07T06:19:35.231Z,31.33
2019-02-07T06:22:52.605Z,33.97
2019-02-07T06:26:00.494Z,33.23
2019-02-07T06:28:47.541Z,32.10
2019-02-07T06:31:53.160Z,32.30
2019-02-07T06:34:50.698Z,34.37
2019-02-07T06:37:50.603Z,34.23
2019-02-07T06:40:37.048Z,33.07
2019-02-07T06:43:34.896Z,33.50
2019-02-07T06:46:35.995Z,34.40
2019-02-07T06:49:29.491Z,33.23
2019-02-07T06:52:21.432Z,33.90
2019-02-07T06:55:15.037Z,35.03
2019-02-07T06:58:22.488Z,35.10
2019-02-07T07:01:33.467Z,36.63
2019-02-07T07:04:33.197Z,33.57
2019-02-07T07:07:31.461Z,33.13
2019-02-07T07:10:19.800Z,33.97
2019-02-07T07:13:09.708Z,35.87
2019-02-07T07:16:10.422Z,33.17
2019-02-07T07:19:08.481Z,32.50
2019-02-07T07:21:56.907Z,34.07
2019-02-07T07:24:46.730Z,33.80
2019-02-07T07:28:08.265Z,32.40
2019-02-07T07:30:59.780Z,33.40
2019-02-07T07:33:52.654Z,34.50
2019-02-07T07:36:39.257Z,36.80
2019-02-07T07:39:30.508Z,34.00
2019-02-07T07:42:21.598Z,33.63
2019-02-07T07:45:20.861Z,32.97
2019-02-07T07:48:11.841Z,33.77
2019-02-07T07:51:00.945Z,30.33
2019-02-07T07:53:56.709Z,32.90
2019-02-07T07:56:55.650Z,33.40
2019-02-07T08:00:00.899Z,33.10
2019-02-07T08:02:52.138Z,31.70
2019-02-07T08:05:53.503Z,33.70
2019-02-07T08:08:56.833Z,33.23
2019-02-07T08:11:48.241Z,31.87
2019-02-07T08:15:02.575Z,32.60
2019-02-07T08:18:09.122Z,32.60
2019-02-07T08:21:35.546Z,32.17
2019-02-07T08:24:29.663Z,31.97
2019-02-07T08:27:28.123Z,34.50
2019-02-07T08:30:36.347Z,32.03
2019-02-07T08:33:39.304Z,32.37
2019-02-07T08:36:28.522Z,30.43
2019-02-07T08:39:25.979Z,29.70
2019-02-07T08:42:16.955Z,32.40
2019-02-07T08:45:15.426Z,30.70
2019-02-07T08:48:06.875Z,32.60
2019-02-07T08:51:05.659Z,31.33
2019-02-07T08:54:03.577Z,32.30
2019-02-07T08:57:13.859Z,30.37
2019-02-07T09:00:21.919Z,30.60
2019-02-07T09:03:11.339Z,29.00
2019-02-07T09:06:04.144Z,31.17
2019-02-07T09:09:16.857Z,31.73
2019-02-07T09:12:02.891Z,29.63
2019-02-07T09:14:49.330Z,29.40
2019-02-07T09:17:33.707Z,28.33
2019-02-07T09:20:20.880Z,28.80
2019-02-07T09:23:16.489Z,27.80
2019-02-07T09:26:35.217Z,28.93
2019-02-07T09:29:28.183Z,27.37
2019-02-07T09:32:34.530Z,25.27
2019-02-07T09:35:29.559Z,26.90
2019-02-07T09:38:33.384Z,26.23
2019-02-07T09:41:31.110Z,28.17
2019-02-07T09:44:29.444Z,25.50
2019-02-07T09:47:25.343Z,26.63
2019-02-07T09:50:24.091Z,25.00
2019-02-07T09:53:23.784Z,27.60
2019-02-07T09:56:28.870Z,27.90
2019-02-07T09:59:29.066Z,26.53
2019-02-07T10:02:18.874Z,26.17
2019-02-07T10:05:06.957Z,26.87
2019-02-07T10:08:15.532Z,26.33
2019-02-07T10:11:04.675Z,26.10
2019-02-07T10:14:06.435Z,26.93
2019-02-07T10:17:10.482Z,24.27
2019-02-07T10:20:18.233Z,27.90
2019-02-07T10:23:21.861Z,26.60
2019-02-07T10:26:14.257Z,26.13
2019-02-07T10:29:10.772Z,28.20
2019-02-07T10:32:24.656Z,26.83
2019-02-07T10:35:22.853Z,27.43
2019-02-07T10:38:28.402Z,27.60
2019-02-07T10:41:39.358Z,28.17
2019-02-07T10:44:30.499Z,29.33
2019-02-07T10:47:19.261Z,28.23
2019-02-07T10:49:59.696Z,29.43
2019-02-07T10:52:59.643Z,25.87
2019-02-07T10:55:49.233Z,25.70
2019-02-07T10:58:58.116Z,26.93
2019-02-07T11:01:46.908Z,27.20
2019-02-07T11:04:36.683Z,28.13
2019-02-07T11:07:27.372Z,26.37
2019-02-07T11:10:21.707Z,28.40
2019-02-07T11:13:20.163Z,26.23
2019-02-07T11:16:11.774Z,25.87
2019-02-07T11:19:29.851Z,26.57
2019-02-07T11:22:19.113Z,27.73
2019-02-07T11:25:23.361Z,26.83
2019-02-07T11:28:15.042Z,26.37
2019-02-07T11:31:13.728Z,27.50
2019-02-07T11:34:16.630Z,27.37
2019-02-07T11:37:14.756Z,25.73
2019-02-07T11:40:02.137Z,26.83
2019-02-07T11:42:52.866Z,27.43
2019-02-07T11:45:54.695Z,25.40
2019-02-07T11:49:06.304Z,26.27
2019-02-07T11:51:48.870Z,25.23
2019-02-07T11:54:50.343Z,25.77
2019-02-07T11:57:39.786Z,25.87
2019-02-07T12:00:37.758Z,23.43
2019-02-07T12:03:26.933Z,22.60
2019-02-07T12:06:09.110Z,23.43
2019-02-07T12:09:25.947Z,22.57
2019-02-07T12:12:21.178Z,23.07
2019-02-07T12:15:08.311Z,21.20
2019-02-07T12:17:52.046Z,20.57
2019-02-07T12:20:50.219Z,20.87
2019-02-07T12:23:48.260Z,22.03
2019-02-07T12:27:02.090Z,21.50
2019-02-07T12:30:00.219Z,20.67
2019-02-07T12:32:45.672Z,22.13
2019-02-07T12:35:41.399Z,21.23
2019-02-07T12:38:28.281Z,22.20
2019-02-07T12:41:14.946Z,21.37
2019-02-07T12:44:00.450Z,21.10
2019-02-07T12:47:09.965Z,20.93
2019-02-07T12:50:00.327Z,22.00
2019-02-07T12:53:06.954Z,20.73
2019-02-07T12:56:12.196Z,20.53
2019-02-07T12:59:07.597Z,21.27
2019-02-07T13:01:59.385Z,20.33
2019-02-07T13:05:06.795Z,20.70
2019-02-07T13:07:56.599Z,19.40
2019-02-07T13:10:52.577Z,20.23
2019-02-07T13:13:47.167Z,21.13
2019-02-07T13:17:00.927Z,26.03
2019-02-07T13:20:07.366Z,21.10
2019-02-07T13:23:13.598Z,20.77
2019-02-07T13:26:10.411Z,20.53
2019-02-07T13:29:03.550Z,19.80
2019-02-07T13:32:02.077Z,20.97
2019-02-07T13:34:50.253Z,23.40
2019-02-07T13:37:52.337Z,22.97
2019-02-07T13:40:43.334Z,21.57
2019-02-07T13:43:39.592Z,20.97
2019-02-07T13:46:29.953Z,20.70
2019-02-07T13:49:19.459Z,19.20
2019-02-07T13:52:11.356Z,19.63
2019-02-07T13:55:12.259Z,18.73
2019-02-07T13:58:01.573Z,19.27
2019-02-07T14:01:10.684Z,19.63
2019-02-07T14:04:09.843Z,18.80
2019-02-07T14:07:32.684Z,18.30
2019-02-07T14:10:13.593Z,19.33
2019-02-07T14:13:14.114Z,20.20
2019-02-07T14:16:03.762Z,20.00
2019-02-07T14:18:52.363Z,19.10
2019-02-07T14:21:47.765Z,19.03
2019-02-07T14:24:43.702Z,18.03
2019-02-07T14:27:29.279Z,17.53
2019-02-07T14:30:33.116Z,18.43
2019-02-07T14:33:35.318Z,18.30
2019-02-07T14:36:23.902Z,18.00
2019-02-07T14:39:06.777Z,19.93
2019-02-07T14:41:49.847Z,18.83
2019-02-07T14:44:41.610Z,19.07
2019-02-07T14:47:14.610Z,17.93
2019-02-07T14:50:14.291Z,18.30
2019-02-07T14:52:38.755Z,18.10
2019-02-07T14:55:12.280Z,17.70
2019-02-07T14:57:47.250Z,19.07
2019-02-07T15:00:22.502Z,18.23
2019-02-07T15:02:53.039Z,19.10
2019-02-07T15:05:24.063Z,17.90
2019-02-07T15:07:56.030Z,18.07
2019-02-07T15:10:45.609Z,18.13
2019-02-07T15:13:18.877Z,18.60
2019-02-07T15:15:53.972Z,19.67
2019-02-07T15:18:26.069Z,18.30
2019-02-07T15:20:57.649Z,17.27
2019-02-07T15:23:30.831Z,17.77
2019-02-07T15:26:01.653Z,17.83
2019-02-07T15:28:32.748Z,17.80
2019-02-07T15:31:03.625Z,18.27
2019-02-07T15:33:34.478Z,17.70
2019-02-07T15:36:07.657Z,17.87
2019-02-07T15:38:39.078Z,18.77
2019-02-07T15:41:10.116Z,18.30
2019-02-07T15:43:40.905Z,17.73
2019-02-07T15:46:14.750Z,18.50
2019-02-07T15:48:47.186Z,19.53
2019-02-07T15:51:20.584Z,25.00
2019-02-07T15:53:51.313Z,20.77
2019-02-07T15:56:23.797Z,18.73
2019-02-07T15:59:18.033Z,17.83
2019-02-07T16:01:55.984Z,17.17
2019-02-07T16:04:41.677Z,18.33
2019-02-07T16:07:13.457Z,17.47
2019-02-07T16:09:46.905Z,17.10
2019-02-07T16:12:18.375Z,19.67
2019-02-07T16:14:49.466Z,18.20
2019-02-07T16:17:36.057Z,20.07
2019-02-07T16:20:10.175Z,19.10
2019-02-07T16:22:44.465Z,17.70
2019-02-07T16:25:18.037Z,19.80
2019-02-07T16:27:52.333Z,18.37
2019-02-07T16:30:25.553Z,18.90
2019-02-07T16:32:57.690Z,19.37
2019-02-07T16:35:33.826Z,19.47
2019-02-07T16:38:07.515Z,20.60
2019-02-07T16:40:44.513Z,23.67
2019-02-07T16:43:17.218Z,23.27
2019-02-07T16:45:54.133Z,22.03
2019-02-07T16:48:26.164Z,18.63
2019-02-07T16:51:00.835Z,17.07
2019-02-07T16:53:50.183Z,17.97
2019-02-07T16:56:35.147Z,19.70
2019-02-07T16:59:05.595Z,18.20
2019-02-07T17:01:36.844Z,28.23
2019-02-07T17:04:10.473Z,22.40
2019-02-07T17:06:44.249Z,19.87
2019-02-07T17:09:36.346Z,17.90
2019-02-07T17:12:09.823Z,17.60
2019-02-07T17:14:42.572Z,19.70
2019-02-07T17:17:13.546Z,17.87
2019-02-07T17:19:50.964Z,26.67
2019-02-07T17:22:24.568Z,42.07
2019-02-07T17:24:56.254Z,40.80
2019-02-07T17:27:34.541Z,24.27
2019-02-07T17:30:11.688Z,18.27
2019-02-07T17:32:44.435Z,19.00
2019-02-07T17:35:18.500Z,18.37
2019-02-07T17:37:50.954Z,16.97
2019-02-07T17:40:22.247Z,17.37
2019-02-07T17:42:55.788Z,18.87
2019-02-07T17:45:28.825Z,17.97
2019-02-07T17:48:00.955Z,21.03
2019-02-07T17:50:34.819Z,40.43
2019-02-07T17:53:08.855Z,49.80
2019-02-07T17:55:39.781Z,39.60
2019-02-07T17:58:13.156Z,39.70
2019-02-07T18:00:55.661Z,55.30
2019-02-07T18:03:29.822Z,46.13
2019-02-07T18:06:01.483Z,23.83
2019-02-07T18:08:32.424Z,21.57
2019-02-07T18:11:03.543Z,29.93
2019-02-07T18:13:34.261Z,39.87
2019-02-07T18:16:05.129Z,27.80
2019-02-07T18:18:35.685Z,22.53
2019-02-07T18:21:06.782Z,19.97
2019-02-07T18:23:40.777Z,19.40
2019-02-07T18:26:14.281Z,19.60
2019-02-07T18:28:49.877Z,21.77
2019-02-07T18:31:33.561Z,19.63
2019-02-07T18:34:08.445Z,21.27
2019-02-07T18:36:38.951Z,21.20
2019-02-07T18:39:33.090Z,20.67
2019-02-07T18:42:22.095Z,21.53
2019-02-07T18:45:11.028Z,23.17
2019-02-07T18:47:41.923Z,20.67
2019-02-07T18:50:18.650Z,21.07
2019-02-07T18:52:51.453Z,21.73
2019-02-07T18:55:25.382Z,21.07
2019-02-07T18:58:09.893Z,22.20
2019-02-07T19:00:43.072Z,20.53
2019-02-07T19:03:14.359Z,20.53
2019-02-07T19:06:03.762Z,22.00
2019-02-07T19:08:35.284Z,20.50
2019-02-07T19:11:09.541Z,21.03
2019-02-07T19:13:58.587Z,21.87
2019-02-07T19:16:36.239Z,21.17
2019-02-07T19:19:10.399Z,21.40
2019-02-07T19:21:56.850Z,20.97
2019-02-07T19:24:22.825Z,21.40
2019-02-07T19:26:56.962Z,22.20
2019-02-07T19:29:33.283Z,27.70
2019-02-07T19:32:04.494Z,39.97
2019-02-07T19:34:36.268Z,45.30
2019-02-07T19:37:13.394Z,27.23
2019-02-07T19:39:47.991Z,24.80
2019-02-07T19:42:37.154Z,22.57
2019-02-07T19:45:11.117Z,22.10
2019-02-07T19:47:46.880Z,22.43
2019-02-07T19:50:26.785Z,21.43
2019-02-07T19:52:57.553Z,23.73
2019-02-07T19:55:29.177Z,23.23
2019-02-07T19:58:03.416Z,21.87
2019-02-07T20:00:35.482Z,22.43
2019-02-07T20:03:24.398Z,23.73
2019-02-07T20:06:03.150Z,22.87
2019-02-07T20:08:33.780Z,23.50
2019-02-07T20:11:05.245Z,23.97
2019-02-07T20:13:35.688Z,23.13
2019-02-07T20:16:10.259Z,23.00
2019-02-07T20:18:43.170Z,24.80
2019-02-07T20:21:15.609Z,23.20
2019-02-07T20:23:49.782Z,23.60
2019-02-07T20:26:22.784Z,23.83
2019-02-07T20:28:57.856Z,23.07
2019-02-07T20:31:37.150Z,22.87
2019-02-07T20:34:23.233Z,22.20
2019-02-07T20:37:00.051Z,23.40
2019-02-07T20:39:30.745Z,23.63
2019-02-07T20:42:17.204Z,25.43
2019-02-07T20:44:48.260Z,23.67
2019-02-07T20:47:18.724Z,23.53
2019-02-07T20:49:49.559Z,24.10
2019-02-07T20:52:22.743Z,22.83
2019-02-07T20:54:57.887Z,22.47
2019-02-07T20:57:28.411Z,22.77
2019-02-07T21:00:00.482Z,22.53
2019-02-07T21:02:31.111Z,23.27
2019-02-07T21:05:04.541Z,22.47
2019-02-07T21:07:36.445Z,22.97
2019-02-07T21:10:12.728Z,24.20
2019-02-07T21:12:51.529Z,23.80
2019-02-07T21:15:24.544Z,22.60
2019-02-07T21:18:13.816Z,23.00
2019-02-07T21:20:46.765Z,23.40
2019-02-07T21:23:19.603Z,23.90
2019-02-07T21:25:53.233Z,24.13
2019-02-07T21:28:27.782Z,24.70
2019-02-07T21:31:02.508Z,23.97
2019-02-07T21:33:37.783Z,24.10
2019-02-07T21:36:12.364Z,24.07
2019-02-07T21:38:45.719Z,23.70
2019-02-07T21:41:20.516Z,24.77
2019-02-07T21:43:53.711Z,24.23
2019-02-07T21:46:26.378Z,23.13
2019-02-07T21:49:06.922Z,23.33
2019-02-07T21:51:39.634Z,23.87
2019-02-07T21:54:11.098Z,23.60
2019-02-07T21:56:41.711Z,23.67
2019-02-07T21:59:13.175Z,24.73
2019-02-07T22:01:47.838Z,24.57
2019-02-07T22:04:22.239Z,24.03
2019-02-07T22:06:56.946Z,23.53
2019-02-07T22:09:29.824Z,23.83
2019-02-07T22:12:04.047Z,24.53
2019-02-07T22:14:37.121Z,25.20
2019-02-07T22:17:07.728Z,23.50
2019-02-07T22:19:38.874Z,25.10
2019-02-07T22:22:10.029Z,25.13
2019-02-07T22:24:41.006Z,25.70
2019-02-07T22:27:12.266Z,24.83
2019-02-07T22:29:45.305Z,25.83
2019-02-07T22:32:29.383Z,23.03
2019-02-07T22:35:01.825Z,24.77
2019-02-07T22:37:34.600Z,24.20
2019-02-07T22:40:21.437Z,22.97
2019-02-07T22:42:58.075Z,23.13
2019-02-07T22:45:35.893Z,22.60
2019-02-07T22:48:11.854Z,23.27
2019-02-07T22:50:50.912Z,23.57
2019-02-07T22:53:21.995Z,22.77
2019-02-07T22:55:52.529Z,22.67
2019-02-07T22:58:23.477Z,25.00
2019-02-07T23:01:36.069Z,23.37
2019-02-07T23:04:24.579Z,25.87
2019-02-07T23:06:57.007Z,23.77
2019-02-07T23:09:35.399Z,23.30
2019-02-07T23:12:10.138Z,24.07
2019-02-07T23:14:47.441Z,25.30
2019-02-07T23:17:19.961Z,25.80
2019-02-07T23:20:09.777Z,25.03
2019-02-07T23:22:40.836Z,24.43
2019-02-07T23:25:14.443Z,26.90
2019-02-07T23:27:46.181Z,27.00
2019-02-07T23:30:32.980Z,25.33
2019-02-07T23:33:06.331Z,26.77
2019-02-07T23:35:39.103Z,25.83
2019-02-07T23:38:13.108Z,26.37
2019-02-07T23:40:48.247Z,26.17
2019-02-07T23:43:23.854Z,26.33
2019-02-07T23:45:59.140Z,26.73
2019-02-07T23:48:31.295Z,26.93
2019-02-07T23:51:03.704Z,26.77
2019-02-07T23:53:37.920Z,26.70
2019-02-07T23:56:18.470Z,26.47
2019-02-07T23:58:51.957Z,26.30
